sensor_id;sensor_type;location;lat;lon;timestamp;P1;durP1;ratioP1;P2;durP2;ratioP2
12663;SDS011;6396;58.490;15.528;2023-05-29T00:00:31;3.50;;;1.47;;
12663;SDS011;6396;58.490;15.528;2023-05-29T00:02:58;5.13;;;1.70;;
12663;SDS011;6396;58.490;15.528;2023-05-29T00:05:26;2.13;;;1.30;;
12663;SDS011;6396;58.490;15.528;2023-05-29T00:07:53;2.80;;;1.60;;
12663;SDS011;6396;58.490;15.528;2023-05-29T00:10:20;4.87;;;1.80;;
12663;SDS011;6396;58.490;15.528;2023-05-29T00:12:48;3.33;;;1.63;;
12663;SDS011;6396;58.490;15.528;2023-05-29T00:15:16;3.17;;;1.60;;
12663;SDS011;6396;58.490;15.528;2023-05-29T00:17:42;5.27;;;1.67;;
12663;SDS011;6396;58.490;15.528;2023-05-29T00:20:10;5.30;;;1.90;;
12663;SDS011;6396;58.490;15.528;2023-05-29T00:22:37;4.67;;;1.63;;
12663;SDS011;6396;58.490;15.528;2023-05-29T00:25:05;4.97;;;1.73;;
12663;SDS011;6396;58.490;15.528;2023-05-29T00:27:34;3.23;;;1.33;;
12663;SDS011;6396;58.490;15.528;2023-05-29T00:30:03;4.30;;;1.90;;
12663;SDS011;6396;58.490;15.528;2023-05-29T00:32:30;4.53;;;1.60;;
12663;SDS011;6396;58.490;15.528;2023-05-29T00:34:57;5.33;;;2.00;;
12663;SDS011;6396;58.490;15.528;2023-05-29T00:37:24;10.63;;;2.33;;
12663;SDS011;6396;58.490;15.528;2023-05-29T00:39:51;5.37;;;1.90;;
12663;SDS011;6396;58.490;15.528;2023-05-29T00:42:18;3.23;;;1.70;;
12663;SDS011;6396;58.490;15.528;2023-05-29T00:44:44;4.50;;;1.60;;
12663;SDS011;6396;58.490;15.528;2023-05-29T00:47:13;5.80;;;2.20;;
12663;SDS011;6396;58.490;15.528;2023-05-29T00:49:41;3.97;;;1.60;;
12663;SDS011;6396;58.490;15.528;2023-05-29T00:52:07;3.67;;;1.93;;
12663;SDS011;6396;58.490;15.528;2023-05-29T00:54:37;3.77;;;1.60;;
12663;SDS011;6396;58.490;15.528;2023-05-29T00:57:05;4.40;;;1.50;;
12663;SDS011;6396;58.490;15.528;2023-05-29T00:59:32;5.70;;;2.23;;
12663;SDS011;6396;58.490;15.528;2023-05-29T01:02:00;3.50;;;1.60;;
12663;SDS011;6396;58.490;15.528;2023-05-29T01:04:29;3.40;;;1.90;;
12663;SDS011;6396;58.490;15.528;2023-05-29T01:06:58;4.30;;;1.57;;
12663;SDS011;6396;58.490;15.528;2023-05-29T01:09:27;5.73;;;1.93;;
12663;SDS011;6396;58.490;15.528;2023-05-29T01:11:57;4.37;;;1.73;;
12663;SDS011;6396;58.490;15.528;2023-05-29T01:14:32;5.50;;;1.73;;
12663;SDS011;6396;58.490;15.528;2023-05-29T01:17:17;4.00;;;2.10;;
12663;SDS011;6396;58.490;15.528;2023-05-29T01:20:08;3.03;;;1.60;;
12663;SDS011;6396;58.490;15.528;2023-05-29T01:22:53;3.53;;;1.73;;
12663;SDS011;6396;58.490;15.528;2023-05-29T01:25:37;5.00;;;1.47;;
12663;SDS011;6396;58.490;15.528;2023-05-29T01:28:15;4.30;;;1.90;;
12663;SDS011;6396;58.490;15.528;2023-05-29T01:30:46;6.00;;;1.83;;
12663;SDS011;6396;58.490;15.528;2023-05-29T01:33:15;4.43;;;1.60;;
12663;SDS011;6396;58.490;15.528;2023-05-29T01:35:42;3.47;;;1.60;;
12663;SDS011;6396;58.490;15.528;2023-05-29T01:38:09;5.67;;;1.83;;
12663;SDS011;6396;58.490;15.528;2023-05-29T01:40:36;3.83;;;1.70;;
12663;SDS011;6396;58.490;15.528;2023-05-29T01:43:03;4.33;;;1.80;;
12663;SDS011;6396;58.490;15.528;2023-05-29T01:45:31;5.37;;;1.80;;
12663;SDS011;6396;58.490;15.528;2023-05-29T01:47:58;3.43;;;1.80;;
12663;SDS011;6396;58.490;15.528;2023-05-29T01:50:25;5.27;;;1.83;;
12663;SDS011;6396;58.490;15.528;2023-05-29T01:52:53;6.27;;;1.97;;
12663;SDS011;6396;58.490;15.528;2023-05-29T01:55:20;4.60;;;1.73;;
12663;SDS011;6396;58.490;15.528;2023-05-29T01:57:47;4.50;;;2.23;;
12663;SDS011;6396;58.490;15.528;2023-05-29T02:00:16;5.93;;;2.13;;
12663;SDS011;6396;58.490;15.528;2023-05-29T02:02:45;3.90;;;1.63;;
12663;SDS011;6396;58.490;15.528;2023-05-29T02:05:12;4.93;;;1.80;;
12663;SDS011;6396;58.490;15.528;2023-05-29T02:07:39;5.43;;;1.97;;
12663;SDS011;6396;58.490;15.528;2023-05-29T02:10:06;5.63;;;2.43;;
12663;SDS011;6396;58.490;15.528;2023-05-29T02:12:32;7.43;;;2.07;;
12663;SDS011;6396;58.490;15.528;2023-05-29T02:14:59;5.97;;;1.90;;
12663;SDS011;6396;58.490;15.528;2023-05-29T02:17:26;4.43;;;1.67;;
12663;SDS011;6396;58.490;15.528;2023-05-29T02:19:54;2.83;;;1.63;;
12663;SDS011;6396;58.490;15.528;2023-05-29T02:22:21;3.67;;;1.73;;
12663;SDS011;6396;58.490;15.528;2023-05-29T02:24:48;5.37;;;2.17;;
12663;SDS011;6396;58.490;15.528;2023-05-29T02:27:14;5.30;;;2.27;;
12663;SDS011;6396;58.490;15.528;2023-05-29T02:29:41;6.63;;;1.90;;
12663;SDS011;6396;58.490;15.528;2023-05-29T02:32:08;7.17;;;1.80;;
12663;SDS011;6396;58.490;15.528;2023-05-29T02:34:35;2.63;;;1.60;;
12663;SDS011;6396;58.490;15.528;2023-05-29T02:37:04;4.13;;;1.97;;
12663;SDS011;6396;58.490;15.528;2023-05-29T02:39:30;6.10;;;2.10;;
12663;SDS011;6396;58.490;15.528;2023-05-29T02:41:57;4.60;;;2.10;;
12663;SDS011;6396;58.490;15.528;2023-05-29T02:44:24;4.30;;;1.63;;
12663;SDS011;6396;58.490;15.528;2023-05-29T02:46:51;5.33;;;1.90;;
12663;SDS011;6396;58.490;15.528;2023-05-29T02:49:18;3.60;;;1.77;;
12663;SDS011;6396;58.490;15.528;2023-05-29T02:51:44;4.67;;;1.80;;
12663;SDS011;6396;58.490;15.528;2023-05-29T02:54:13;4.13;;;2.00;;
12663;SDS011;6396;58.490;15.528;2023-05-29T02:56:39;7.77;;;2.00;;
12663;SDS011;6396;58.490;15.528;2023-05-29T02:59:06;6.00;;;2.00;;
12663;SDS011;6396;58.490;15.528;2023-05-29T03:01:33;5.57;;;2.00;;
12663;SDS011;6396;58.490;15.528;2023-05-29T03:04:00;7.93;;;2.13;;
12663;SDS011;6396;58.490;15.528;2023-05-29T03:06:26;6.07;;;2.20;;
12663;SDS011;6396;58.490;15.528;2023-05-29T03:08:53;6.93;;;2.17;;
12663;SDS011;6396;58.490;15.528;2023-05-29T03:11:21;6.93;;;2.10;;
12663;SDS011;6396;58.490;15.528;2023-05-29T03:13:50;5.57;;;2.20;;
12663;SDS011;6396;58.490;15.528;2023-05-29T03:16:16;3.70;;;1.73;;
12663;SDS011;6396;58.490;15.528;2023-05-29T03:18:43;4.23;;;2.10;;
12663;SDS011;6396;58.490;15.528;2023-05-29T03:21:10;4.07;;;2.27;;
12663;SDS011;6396;58.490;15.528;2023-05-29T03:23:37;5.27;;;2.07;;
12663;SDS011;6396;58.490;15.528;2023-05-29T03:26:04;4.97;;;1.87;;
12663;SDS011;6396;58.490;15.528;2023-05-29T03:28:32;9.53;;;2.83;;
12663;SDS011;6396;58.490;15.528;2023-05-29T03:30:59;6.03;;;2.17;;
12663;SDS011;6396;58.490;15.528;2023-05-29T03:33:26;6.97;;;2.57;;
12663;SDS011;6396;58.490;15.528;2023-05-29T03:35:53;4.13;;;2.00;;
12663;SDS011;6396;58.490;15.528;2023-05-29T03:38:20;4.87;;;1.80;;
12663;SDS011;6396;58.490;15.528;2023-05-29T03:40:47;3.10;;;1.50;;
12663;SDS011;6396;58.490;15.528;2023-05-29T03:43:14;4.57;;;1.70;;
12663;SDS011;6396;58.490;15.528;2023-05-29T03:45:42;7.23;;;2.13;;
12663;SDS011;6396;58.490;15.528;2023-05-29T03:48:08;5.53;;;1.60;;
12663;SDS011;6396;58.490;15.528;2023-05-29T03:50:35;3.77;;;1.80;;
12663;SDS011;6396;58.490;15.528;2023-05-29T03:53:02;2.27;;;1.83;;
12663;SDS011;6396;58.490;15.528;2023-05-29T03:55:29;2.90;;;1.60;;
12663;SDS011;6396;58.490;15.528;2023-05-29T03:57:57;3.77;;;1.73;;
12663;SDS011;6396;58.490;15.528;2023-05-29T04:00:24;2.67;;;1.57;;
12663;SDS011;6396;58.490;15.528;2023-05-29T04:02:54;3.50;;;1.80;;
12663;SDS011;6396;58.490;15.528;2023-05-29T04:05:22;6.63;;;2.07;;
12663;SDS011;6396;58.490;15.528;2023-05-29T04:07:48;2.00;;;1.60;;
12663;SDS011;6396;58.490;15.528;2023-05-29T04:10:15;2.80;;;1.80;;
12663;SDS011;6396;58.490;15.528;2023-05-29T04:12:42;2.17;;;1.80;;
12663;SDS011;6396;58.490;15.528;2023-05-29T04:15:09;2.57;;;1.53;;
12663;SDS011;6396;58.490;15.528;2023-05-29T04:17:36;1.83;;;1.30;;
12663;SDS011;6396;58.490;15.528;2023-05-29T04:20:05;2.73;;;1.50;;
12663;SDS011;6396;58.490;15.528;2023-05-29T04:22:34;2.37;;;1.67;;
12663;SDS011;6396;58.490;15.528;2023-05-29T04:25:01;2.73;;;1.60;;
12663;SDS011;6396;58.490;15.528;2023-05-29T04:27:28;2.27;;;1.53;;
12663;SDS011;6396;58.490;15.528;2023-05-29T04:29:57;2.20;;;1.57;;
12663;SDS011;6396;58.490;15.528;2023-05-29T04:32:23;1.70;;;1.13;;
12663;SDS011;6396;58.490;15.528;2023-05-29T04:34:51;1.80;;;1.20;;
12663;SDS011;6396;58.490;15.528;2023-05-29T04:37:19;2.23;;;1.40;;
12663;SDS011;6396;58.490;15.528;2023-05-29T04:39:57;2.70;;;1.60;;
12663;SDS011;6396;58.490;15.528;2023-05-29T04:42:24;1.20;;;1.10;;
12663;SDS011;6396;58.490;15.528;2023-05-29T04:44:51;2.73;;;1.40;;
12663;SDS011;6396;58.490;15.528;2023-05-29T04:47:18;3.10;;;1.63;;
12663;SDS011;6396;58.490;15.528;2023-05-29T04:49:45;1.93;;;1.50;;
12663;SDS011;6396;58.490;15.528;2023-05-29T04:52:15;3.03;;;1.60;;
12663;SDS011;6396;58.490;15.528;2023-05-29T04:54:43;2.27;;;1.50;;
12663;SDS011;6396;58.490;15.528;2023-05-29T04:57:10;2.83;;;1.40;;
12663;SDS011;6396;58.490;15.528;2023-05-29T04:59:37;1.10;;;1.00;;
12663;SDS011;6396;58.490;15.528;2023-05-29T05:02:04;1.43;;;1.30;;
12663;SDS011;6396;58.490;15.528;2023-05-29T05:04:31;1.87;;;1.10;;
12663;SDS011;6396;58.490;15.528;2023-05-29T05:06:58;3.60;;;1.40;;
12663;SDS011;6396;58.490;15.528;2023-05-29T05:09:25;3.33;;;1.30;;
12663;SDS011;6396;58.490;15.528;2023-05-29T05:11:54;1.33;;;1.20;;
12663;SDS011;6396;58.490;15.528;2023-05-29T05:14:21;2.00;;;1.40;;
12663;SDS011;6396;58.490;15.528;2023-05-29T05:16:49;3.00;;;1.40;;
12663;SDS011;6396;58.490;15.528;2023-05-29T05:19:16;2.90;;;1.30;;
12663;SDS011;6396;58.490;15.528;2023-05-29T05:21:44;1.20;;;1.10;;
12663;SDS011;6396;58.490;15.528;2023-05-29T05:24:10;2.90;;;1.40;;
12663;SDS011;6396;58.490;15.528;2023-05-29T05:26:37;1.63;;;1.37;;
12663;SDS011;6396;58.490;15.528;2023-05-29T05:29:11;1.93;;;1.03;;
12663;SDS011;6396;58.490;15.528;2023-05-29T05:31:38;1.20;;;1.10;;
12663;SDS011;6396;58.490;15.528;2023-05-29T05:34:05;2.93;;;1.10;;
12663;SDS011;6396;58.490;15.528;2023-05-29T05:36:32;2.23;;;1.40;;
12663;SDS011;6396;58.490;15.528;2023-05-29T05:38:59;2.10;;;1.20;;
12663;SDS011;6396;58.490;15.528;2023-05-29T05:41:26;1.43;;;1.20;;
12663;SDS011;6396;58.490;15.528;2023-05-29T05:43:53;2.03;;;1.27;;
12663;SDS011;6396;58.490;15.528;2023-05-29T05:46:21;1.37;;;1.20;;
12663;SDS011;6396;58.490;15.528;2023-05-29T05:48:48;2.80;;;1.30;;
12663;SDS011;6396;58.490;15.528;2023-05-29T05:51:17;1.83;;;0.93;;
12663;SDS011;6396;58.490;15.528;2023-05-29T05:53:44;3.80;;;1.60;;
12663;SDS011;6396;58.490;15.528;2023-05-29T05:56:11;2.03;;;1.03;;
12663;SDS011;6396;58.490;15.528;2023-05-29T05:58:38;1.53;;;1.10;;
12663;SDS011;6396;58.490;15.528;2023-05-29T06:01:06;1.27;;;1.03;;
12663;SDS011;6396;58.490;15.528;2023-05-29T06:03:36;2.30;;;1.20;;
12663;SDS011;6396;58.490;15.528;2023-05-29T06:06:03;1.53;;;1.10;;
12663;SDS011;6396;58.490;15.528;2023-05-29T06:08:30;2.03;;;1.10;;
12663;SDS011;6396;58.490;15.528;2023-05-29T06:10:57;1.57;;;1.20;;
12663;SDS011;6396;58.490;15.528;2023-05-29T06:13:24;2.20;;;1.30;;
12663;SDS011;6396;58.490;15.528;2023-05-29T06:15:51;2.53;;;1.20;;
12663;SDS011;6396;58.490;15.528;2023-05-29T06:18:19;1.83;;;1.20;;
12663;SDS011;6396;58.490;15.528;2023-05-29T06:20:47;2.30;;;1.33;;
12663;SDS011;6396;58.490;15.528;2023-05-29T06:23:14;1.10;;;1.00;;
12663;SDS011;6396;58.490;15.528;2023-05-29T06:25:41;2.00;;;1.20;;
12663;SDS011;6396;58.490;15.528;2023-05-29T06:28:08;1.93;;;1.23;;
12663;SDS011;6396;58.490;15.528;2023-05-29T06:30:35;3.63;;;1.67;;
12663;SDS011;6396;58.490;15.528;2023-05-29T06:33:02;2.23;;;1.43;;
12663;SDS011;6396;58.490;15.528;2023-05-29T06:35:29;1.97;;;1.37;;
12663;SDS011;6396;58.490;15.528;2023-05-29T06:37:57;1.40;;;1.13;;
12663;SDS011;6396;58.490;15.528;2023-05-29T06:40:24;3.33;;;1.30;;
12663;SDS011;6396;58.490;15.528;2023-05-29T06:42:51;1.27;;;1.17;;
12663;SDS011;6396;58.490;15.528;2023-05-29T06:45:18;5.80;;;1.63;;
12663;SDS011;6396;58.490;15.528;2023-05-29T06:47:45;1.27;;;1.10;;
12663;SDS011;6396;58.490;15.528;2023-05-29T06:50:12;1.27;;;1.00;;
12663;SDS011;6396;58.490;15.528;2023-05-29T06:52:40;2.47;;;1.20;;
12663;SDS011;6396;58.490;15.528;2023-05-29T06:55:08;1.30;;;1.20;;
12663;SDS011;6396;58.490;15.528;2023-05-29T06:57:35;2.20;;;1.17;;
12663;SDS011;6396;58.490;15.528;2023-05-29T07:00:02;3.57;;;1.07;;
12663;SDS011;6396;58.490;15.528;2023-05-29T07:02:30;1.10;;;1.00;;
12663;SDS011;6396;58.490;15.528;2023-05-29T07:04:57;2.80;;;1.20;;
12663;SDS011;6396;58.490;15.528;2023-05-29T07:07:26;1.87;;;1.30;;
12663;SDS011;6396;58.490;15.528;2023-05-29T07:09:54;1.93;;;1.30;;
12663;SDS011;6396;58.490;15.528;2023-05-29T07:12:23;1.40;;;1.30;;
12663;SDS011;6396;58.490;15.528;2023-05-29T07:14:50;2.87;;;1.20;;
12663;SDS011;6396;58.490;15.528;2023-05-29T07:17:20;2.70;;;1.20;;
12663;SDS011;6396;58.490;15.528;2023-05-29T07:19:47;1.20;;;1.10;;
12663;SDS011;6396;58.490;15.528;2023-05-29T07:22:15;2.07;;;1.20;;
12663;SDS011;6396;58.490;15.528;2023-05-29T07:24:42;1.37;;;1.03;;
12663;SDS011;6396;58.490;15.528;2023-05-29T07:27:09;1.20;;;1.10;;
12663;SDS011;6396;58.490;15.528;2023-05-29T07:29:38;2.70;;;1.10;;
12663;SDS011;6396;58.490;15.528;2023-05-29T07:32:05;2.43;;;1.10;;
12663;SDS011;6396;58.490;15.528;2023-05-29T07:34:32;3.07;;;1.37;;
12663;SDS011;6396;58.490;15.528;2023-05-29T07:37:00;1.40;;;1.03;;
12663;SDS011;6396;58.490;15.528;2023-05-29T07:39:29;2.17;;;1.20;;
12663;SDS011;6396;58.490;15.528;2023-05-29T07:42:00;1.27;;;1.17;;
12663;SDS011;6396;58.490;15.528;2023-05-29T07:44:27;1.73;;;1.10;;
12663;SDS011;6396;58.490;15.528;2023-05-29T07:46:56;1.60;;;1.33;;
12663;SDS011;6396;58.490;15.528;2023-05-29T07:49:23;2.20;;;1.20;;
12663;SDS011;6396;58.490;15.528;2023-05-29T07:51:50;2.43;;;1.40;;
12663;SDS011;6396;58.490;15.528;2023-05-29T07:54:17;1.20;;;1.10;;
12663;SDS011;6396;58.490;15.528;2023-05-29T07:56:45;2.83;;;1.13;;
12663;SDS011;6396;58.490;15.528;2023-05-29T07:59:12;2.70;;;1.20;;
12663;SDS011;6396;58.490;15.528;2023-05-29T08:01:39;3.27;;;1.40;;
12663;SDS011;6396;58.490;15.528;2023-05-29T08:04:08;3.10;;;1.20;;
12663;SDS011;6396;58.490;15.528;2023-05-29T08:06:35;2.83;;;1.53;;
12663;SDS011;6396;58.490;15.528;2023-05-29T08:09:01;3.57;;;1.40;;
12663;SDS011;6396;58.490;15.528;2023-05-29T08:11:30;2.13;;;1.20;;
12663;SDS011;6396;58.490;15.528;2023-05-29T08:13:57;0.93;;;0.90;;
12663;SDS011;6396;58.490;15.528;2023-05-29T08:16:24;2.13;;;1.30;;
12663;SDS011;6396;58.490;15.528;2023-05-29T08:18:52;1.73;;;1.20;;
12663;SDS011;6396;58.490;15.528;2023-05-29T08:21:20;2.60;;;1.27;;
12663;SDS011;6396;58.490;15.528;2023-05-29T08:23:47;1.10;;;1.00;;
12663;SDS011;6396;58.490;15.528;2023-05-29T08:26:14;1.90;;;1.10;;
12663;SDS011;6396;58.490;15.528;2023-05-29T08:28:41;3.77;;;1.30;;
12663;SDS011;6396;58.490;15.528;2023-05-29T08:31:07;1.73;;;1.40;;
12663;SDS011;6396;58.490;15.528;2023-05-29T08:33:34;1.27;;;1.17;;
12663;SDS011;6396;58.490;15.528;2023-05-29T08:36:02;2.13;;;1.30;;
12663;SDS011;6396;58.490;15.528;2023-05-29T08:38:30;1.63;;;1.30;;
12663;SDS011;6396;58.490;15.528;2023-05-29T08:40:57;1.17;;;1.07;;
12663;SDS011;6396;58.490;15.528;2023-05-29T08:43:24;1.90;;;1.17;;
12663;SDS011;6396;58.490;15.528;2023-05-29T08:45:55;1.73;;;1.30;;
12663;SDS011;6396;58.490;15.528;2023-05-29T08:48:25;2.70;;;1.33;;
12663;SDS011;6396;58.490;15.528;2023-05-29T08:50:55;3.17;;;1.37;;
12663;SDS011;6396;58.490;15.528;2023-05-29T08:53:23;3.63;;;1.30;;
12663;SDS011;6396;58.490;15.528;2023-05-29T08:55:52;1.40;;;1.30;;
12663;SDS011;6396;58.490;15.528;2023-05-29T08:58:21;1.20;;;1.10;;
12663;SDS011;6396;58.490;15.528;2023-05-29T09:00:49;3.63;;;1.38;;
12663;SDS011;6396;58.490;15.528;2023-05-29T09:03:17;2.20;;;1.30;;
12663;SDS011;6396;58.490;15.528;2023-05-29T09:05:45;2.20;;;1.50;;
12663;SDS011;6396;58.490;15.528;2023-05-29T09:08:12;3.47;;;1.30;;
12663;SDS011;6396;58.490;15.528;2023-05-29T09:10:40;2.77;;;1.27;;
12663;SDS011;6396;58.490;15.528;2023-05-29T09:13:10;1.77;;;1.10;;
12663;SDS011;6396;58.490;15.528;2023-05-29T09:15:38;1.50;;;1.40;;
12663;SDS011;6396;58.490;15.528;2023-05-29T09:18:08;2.17;;;1.20;;
12663;SDS011;6396;58.490;15.528;2023-05-29T09:20:35;1.47;;;1.30;;
12663;SDS011;6396;58.490;15.528;2023-05-29T09:23:03;4.00;;;1.30;;
12663;SDS011;6396;58.490;15.528;2023-05-29T09:25:31;1.57;;;1.37;;
12663;SDS011;6396;58.490;15.528;2023-05-29T09:27:59;2.60;;;1.40;;
12663;SDS011;6396;58.490;15.528;2023-05-29T09:30:34;1.23;;;1.13;;
12663;SDS011;6396;58.490;15.528;2023-05-29T09:33:02;1.47;;;1.37;;
12663;SDS011;6396;58.490;15.528;2023-05-29T09:35:33;1.43;;;1.03;;
12663;SDS011;6396;58.490;15.528;2023-05-29T09:38:01;3.27;;;1.30;;
12663;SDS011;6396;58.490;15.528;2023-05-29T09:40:31;1.30;;;1.20;;
12663;SDS011;6396;58.490;15.528;2023-05-29T09:43:02;1.40;;;1.30;;
12663;SDS011;6396;58.490;15.528;2023-05-29T09:45:33;1.57;;;1.30;;
12663;SDS011;6396;58.490;15.528;2023-05-29T09:48:03;2.13;;;1.47;;
12663;SDS011;6396;58.490;15.528;2023-05-29T09:50:31;2.37;;;1.30;;
12663;SDS011;6396;58.490;15.528;2023-05-29T09:52:59;1.47;;;1.20;;
12663;SDS011;6396;58.490;15.528;2023-05-29T09:55:27;1.43;;;1.30;;
12663;SDS011;6396;58.490;15.528;2023-05-29T09:57:56;1.40;;;1.20;;
12663;SDS011;6396;58.490;15.528;2023-05-29T10:00:24;2.43;;;1.30;;
12663;SDS011;6396;58.490;15.528;2023-05-29T10:02:53;2.00;;;1.33;;
12663;SDS011;6396;58.490;15.528;2023-05-29T10:05:21;1.30;;;1.20;;
12663;SDS011;6396;58.490;15.528;2023-05-29T10:07:47;1.77;;;1.17;;
12663;SDS011;6396;58.490;15.528;2023-05-29T10:10:18;4.40;;;1.30;;
12663;SDS011;6396;58.490;15.528;2023-05-29T10:12:47;1.70;;;1.20;;
12663;SDS011;6396;58.490;15.528;2023-05-29T10:15:16;2.10;;;1.20;;
12663;SDS011;6396;58.490;15.528;2023-05-29T10:17:49;1.77;;;1.30;;
12663;SDS011;6396;58.490;15.528;2023-05-29T10:20:19;2.20;;;1.40;;
12663;SDS011;6396;58.490;15.528;2023-05-29T10:22:49;1.63;;;1.43;;
12663;SDS011;6396;58.490;15.528;2023-05-29T10:25:18;2.07;;;1.50;;
12663;SDS011;6396;58.490;15.528;2023-05-29T10:27:46;1.77;;;1.20;;
12663;SDS011;6396;58.490;15.528;2023-05-29T10:30:15;1.43;;;1.30;;
12663;SDS011;6396;58.490;15.528;2023-05-29T10:32:56;1.30;;;1.20;;
12663;SDS011;6396;58.490;15.528;2023-05-29T10:35:39;1.37;;;1.27;;
12663;SDS011;6396;58.490;15.528;2023-05-29T10:38:10;1.67;;;1.40;;
12663;SDS011;6396;58.490;15.528;2023-05-29T10:40:39;1.53;;;1.20;;
12663;SDS011;6396;58.490;15.528;2023-05-29T10:43:05;3.13;;;1.30;;
12663;SDS011;6396;58.490;15.528;2023-05-29T10:45:48;5.43;;;1.80;;
12663;SDS011;6396;58.490;15.528;2023-05-29T10:51:06;2.20;;;1.20;;
12663;SDS011;6396;58.490;15.528;2023-05-29T10:53:33;1.87;;;1.27;;
12663;SDS011;6396;58.490;15.528;2023-05-29T10:56:05;1.57;;;1.30;;
12663;SDS011;6396;58.490;15.528;2023-05-29T10:58:36;2.00;;;1.20;;
12663;SDS011;6396;58.490;15.528;2023-05-29T11:01:03;1.63;;;1.10;;
12663;SDS011;6396;58.490;15.528;2023-05-29T11:03:31;1.30;;;1.20;;
12663;SDS011;6396;58.490;15.528;2023-05-29T11:05:59;1.67;;;1.30;;
12663;SDS011;6396;58.490;15.528;2023-05-29T11:08:34;3.60;;;1.30;;
12663;SDS011;6396;58.490;15.528;2023-05-29T11:11:02;1.70;;;1.37;;
12663;SDS011;6396;58.490;15.528;2023-05-29T11:13:31;2.47;;;1.23;;
12663;SDS011;6396;58.490;15.528;2023-05-29T11:16:10;3.73;;;1.20;;
12663;SDS011;6396;58.490;15.528;2023-05-29T11:18:39;2.60;;;1.20;;
12663;SDS011;6396;58.490;15.528;2023-05-29T11:21:11;2.17;;;1.17;;
12663;SDS011;6396;58.490;15.528;2023-05-29T11:23:50;1.17;;;1.10;;
12663;SDS011;6396;58.490;15.528;2023-05-29T11:26:18;2.37;;;1.07;;
12663;SDS011;6396;58.490;15.528;2023-05-29T11:28:47;5.70;;;1.57;;
12663;SDS011;6396;58.490;15.528;2023-05-29T11:31:13;3.00;;;1.40;;
12663;SDS011;6396;58.490;15.528;2023-05-29T11:33:45;1.80;;;1.03;;
12663;SDS011;6396;58.490;15.528;2023-05-29T11:36:14;2.50;;;1.30;;
12663;SDS011;6396;58.490;15.528;2023-05-29T11:38:41;3.20;;;1.30;;
12663;SDS011;6396;58.490;15.528;2023-05-29T11:41:09;1.50;;;1.40;;
12663;SDS011;6396;58.490;15.528;2023-05-29T11:43:36;2.50;;;1.10;;
12663;SDS011;6396;58.490;15.528;2023-05-29T11:46:13;2.97;;;1.30;;
12663;SDS011;6396;58.490;15.528;2023-05-29T11:48:46;1.67;;;1.00;;
12663;SDS011;6396;58.490;15.528;2023-05-29T11:51:13;1.73;;;1.30;;
12663;SDS011;6396;58.490;15.528;2023-05-29T11:53:40;1.80;;;1.10;;
12663;SDS011;6396;58.490;15.528;2023-05-29T11:56:10;1.77;;;1.20;;
12663;SDS011;6396;58.490;15.528;2023-05-29T11:58:37;1.27;;;1.03;;
12663;SDS011;6396;58.490;15.528;2023-05-29T12:01:04;2.33;;;1.20;;
12663;SDS011;6396;58.490;15.528;2023-05-29T12:03:36;1.27;;;1.10;;
12663;SDS011;6396;58.490;15.528;2023-05-29T12:06:05;2.00;;;1.23;;
12663;SDS011;6396;58.490;15.528;2023-05-29T12:08:32;1.30;;;1.20;;
12663;SDS011;6396;58.490;15.528;2023-05-29T12:11:00;2.27;;;1.20;;
12663;SDS011;6396;58.490;15.528;2023-05-29T12:13:28;1.40;;;1.10;;
12663;SDS011;6396;58.490;15.528;2023-05-29T12:15:56;1.20;;;1.10;;
12663;SDS011;6396;58.490;15.528;2023-05-29T12:18:24;2.47;;;1.13;;
12663;SDS011;6396;58.490;15.528;2023-05-29T12:20:56;1.70;;;1.07;;
12663;SDS011;6396;58.490;15.528;2023-05-29T12:23:23;1.60;;;1.23;;
12663;SDS011;6396;58.490;15.528;2023-05-29T12:25:50;1.23;;;1.10;;
12663;SDS011;6396;58.490;15.528;2023-05-29T12:28:18;1.30;;;1.20;;
12663;SDS011;6396;58.490;15.528;2023-05-29T12:30:48;1.27;;;1.17;;
12663;SDS011;6396;58.490;15.528;2023-05-29T12:33:24;1.47;;;1.10;;
12663;SDS011;6396;58.490;15.528;2023-05-29T12:35:53;2.13;;;1.20;;
12663;SDS011;6396;58.490;15.528;2023-05-29T12:38:20;2.93;;;1.10;;
12663;SDS011;6396;58.490;15.528;2023-05-29T12:40:49;2.97;;;1.20;;
12663;SDS011;6396;58.490;15.528;2023-05-29T12:43:17;1.33;;;1.23;;
12663;SDS011;6396;58.490;15.528;2023-05-29T12:45:44;1.30;;;1.20;;
12663;SDS011;6396;58.490;15.528;2023-05-29T12:48:12;2.63;;;1.10;;
12663;SDS011;6396;58.490;15.528;2023-05-29T12:50:39;2.30;;;1.10;;
12663;SDS011;6396;58.490;15.528;2023-05-29T12:53:06;1.10;;;1.00;;
12663;SDS011;6396;58.490;15.528;2023-05-29T12:55:34;1.23;;;1.13;;
12663;SDS011;6396;58.490;15.528;2023-05-29T12:58:03;2.00;;;1.17;;
12663;SDS011;6396;58.490;15.528;2023-05-29T13:00:31;1.90;;;1.00;;
12663;SDS011;6396;58.490;15.528;2023-05-29T13:02:58;2.00;;;1.10;;
12663;SDS011;6396;58.490;15.528;2023-05-29T13:05:27;1.03;;;1.00;;
12663;SDS011;6396;58.490;15.528;2023-05-29T13:07:54;2.37;;;1.17;;
12663;SDS011;6396;58.490;15.528;2023-05-29T13:10:21;2.00;;;1.30;;
12663;SDS011;6396;58.490;15.528;2023-05-29T13:12:48;2.03;;;1.40;;
12663;SDS011;6396;58.490;15.528;2023-05-29T13:15:19;2.37;;;1.20;;
12663;SDS011;6396;58.490;15.528;2023-05-29T13:17:46;1.33;;;1.10;;
12663;SDS011;6396;58.490;15.528;2023-05-29T13:20:13;3.17;;;1.20;;
12663;SDS011;6396;58.490;15.528;2023-05-29T13:22:43;4.43;;;1.30;;
12663;SDS011;6396;58.490;15.528;2023-05-29T13:25:11;1.13;;;1.10;;
12663;SDS011;6396;58.490;15.528;2023-05-29T13:27:40;3.00;;;1.20;;
12663;SDS011;6396;58.490;15.528;2023-05-29T13:30:08;1.47;;;1.20;;
12663;SDS011;6396;58.490;15.528;2023-05-29T13:32:36;1.97;;;1.20;;
12663;SDS011;6396;58.490;15.528;2023-05-29T13:35:04;2.07;;;1.30;;
12663;SDS011;6396;58.490;15.528;2023-05-29T13:37:31;1.77;;;1.00;;
12663;SDS011;6396;58.490;15.528;2023-05-29T13:40:00;3.07;;;1.40;;
12663;SDS011;6396;58.490;15.528;2023-05-29T13:42:27;5.70;;;1.20;;
12663;SDS011;6396;58.490;15.528;2023-05-29T13:44:54;1.83;;;1.20;;
12663;SDS011;6396;58.490;15.528;2023-05-29T13:47:21;1.50;;;1.20;;
12663;SDS011;6396;58.490;15.528;2023-05-29T13:49:47;1.93;;;1.10;;
12663;SDS011;6396;58.490;15.528;2023-05-29T13:52:14;1.37;;;1.27;;
12663;SDS011;6396;58.490;15.528;2023-05-29T13:54:42;2.13;;;1.10;;
12663;SDS011;6396;58.490;15.528;2023-05-29T13:57:10;5.13;;;1.40;;
12663;SDS011;6396;58.490;15.528;2023-05-29T13:59:37;1.27;;;1.17;;
12663;SDS011;6396;58.490;15.528;2023-05-29T14:02:04;1.20;;;1.10;;
12663;SDS011;6396;58.490;15.528;2023-05-29T14:04:33;0.97;;;0.97;;
12663;SDS011;6396;58.490;15.528;2023-05-29T14:06:59;1.20;;;1.10;;
12663;SDS011;6396;58.490;15.528;2023-05-29T14:09:26;1.70;;;1.27;;
12663;SDS011;6396;58.490;15.528;2023-05-29T14:11:53;2.70;;;1.13;;
12663;SDS011;6396;58.490;15.528;2023-05-29T14:14:24;1.47;;;1.30;;
12663;SDS011;6396;58.490;15.528;2023-05-29T14:16:52;2.43;;;1.30;;
12663;SDS011;6396;58.490;15.528;2023-05-29T14:19:19;1.50;;;1.20;;
12663;SDS011;6396;58.490;15.528;2023-05-29T14:21:47;1.13;;;1.07;;
12663;SDS011;6396;58.490;15.528;2023-05-29T14:24:13;1.10;;;1.00;;
12663;SDS011;6396;58.490;15.528;2023-05-29T14:26:40;1.20;;;1.00;;
12663;SDS011;6396;58.490;15.528;2023-05-29T14:29:10;1.33;;;1.23;;
12663;SDS011;6396;58.490;15.528;2023-05-29T14:31:38;2.10;;;1.00;;
12663;SDS011;6396;58.490;15.528;2023-05-29T14:34:05;1.73;;;1.10;;
12663;SDS011;6396;58.490;15.528;2023-05-29T14:36:32;1.33;;;1.13;;
12663;SDS011;6396;58.490;15.528;2023-05-29T14:39:00;5.03;;;1.20;;
12663;SDS011;6396;58.490;15.528;2023-05-29T14:41:27;1.53;;;1.10;;
12663;SDS011;6396;58.490;15.528;2023-05-29T14:43:54;2.10;;;1.13;;
12663;SDS011;6396;58.490;15.528;2023-05-29T14:46:23;4.20;;;1.40;;
12663;SDS011;6396;58.490;15.528;2023-05-29T14:48:51;1.63;;;1.27;;
12663;SDS011;6396;58.490;15.528;2023-05-29T14:51:19;1.87;;;1.10;;
12663;SDS011;6396;58.490;15.528;2023-05-29T14:53:46;2.13;;;1.30;;
12663;SDS011;6396;58.490;15.528;2023-05-29T14:56:12;2.30;;;1.10;;